Aeroporto :
LOGIN :

Iscrizione | Disclaimer

   EN    FR    IT 

 










Sommario :    VFR   VFR Marginale   IFR   IFR Intensivo   IFR Molto Intensivo
Visibilità : 
Base nubi : 
>= 8 km
>= 3000ft
5 / 8 km
1000 / 3000 ft
1500m / 5 km
500 / 1000 ft
800 / 1500m
200 / 500 ft
< 800m
< 200 ft
Simboli :   Temporali  Nebbia  Neve Forte  Precipitazioni Forti  Vento > 20 kt
SIGMETs :   Varie  Temporali  Ghiacco  Turbolenza  Onda orograficha  Ceneri Vulcaniche







- Altitudine del aeroporto : 466 ft


LHPA - Pápa

ULTIMO METAR :
  • 240545Z 00000KT CAVOK 22/17 Q1019 NOSIG RMK BLU

METARs OBSOLETI :
  • 240515Z 07002KT CAVOK 21/17 Q1018 NOSIG RMK BLU
  • 240445Z 00000KT CAVOK 18/16 Q1018 NOSIG RMK BLU
  • 240415Z 03002KT CAVOK 18/16 Q1019 NOSIG RMK BLU
  • 240345Z 00000KT CAVOK 17/16 Q1018 NOSIG RMK BLU
  • 240315Z 00000KT CAVOK 16/15 Q1018 NOSIG RMK BLU

TAF TAF LHPA
Valido dal 24 a 06 ore il 25 a 06 ore UTC


240515Z 2406/2506 VRB03KT CAVOK
BECMG 2406/2409 36006KT
BECMG 2415/2418 VRB03KT
Nessun NOTAM noto per questo aeroporto.



MetMap, La meteo Aeronautica in un colpo d'occhio ! - Copyright ORBIFLY Dicembre 2007 - Disclaimer

ORBIFLY MET'MAP TEAM :

Programmazione e sviluppo : Alexandra Zaïnal
Concezione e sviluppo : Baudouin d'Aumeries
Co-Programmazione e sviluppo : Marc-Olivier Méhu
Supporto tecnico e logistico : Manuel Goepfert
Aiuto per la traduzione : Arnaldo La Scala

Contatto : metmap@orbifly.com




FONTI E CREDITI :

   NOAA